createdAt,value
2022-09-14T00:01:08.207Z,22.90
2022-09-14T00:03:38.513Z,23.00
2022-09-14T00:06:06.332Z,22.90
2022-09-14T00:08:33.821Z,22.90
2022-09-14T00:11:04.281Z,22.90
2022-09-14T00:13:31.551Z,22.90
2022-09-14T00:16:02.513Z,22.80
2022-09-14T00:18:29.284Z,22.90
2022-09-14T00:20:59.979Z,22.90
2022-09-14T00:23:26.744Z,22.90
2022-09-14T00:25:53.501Z,22.90
2022-09-14T00:28:20.544Z,22.80
2022-09-14T00:30:47.340Z,22.80
2022-09-14T00:33:14.260Z,22.80
2022-09-14T00:35:41.067Z,22.80
2022-09-14T00:38:09.785Z,22.80
2022-09-14T00:40:37.088Z,22.80
2022-09-14T00:43:06.008Z,22.70
2022-09-14T00:45:32.862Z,22.80
2022-09-14T00:48:00.737Z,22.80
2022-09-14T00:50:27.506Z,22.80
2022-09-14T00:52:55.440Z,22.80
2022-09-14T00:55:23.590Z,22.80
2022-09-14T00:57:52.280Z,22.80
2022-09-14T01:00:21.062Z,22.80
2022-09-14T01:02:47.935Z,22.80
2022-09-14T01:05:15.017Z,22.80
2022-09-14T01:07:43.216Z,22.80
2022-09-14T01:10:33.601Z,22.80
2022-09-14T01:13:06.591Z,22.80
2022-09-14T01:15:40.144Z,22.70
2022-09-14T01:18:12.753Z,22.80
2022-09-14T01:20:39.576Z,22.80
2022-09-14T01:23:10.073Z,22.80
2022-09-14T01:25:42.908Z,22.80
2022-09-14T01:28:16.547Z,22.80
2022-09-14T01:30:44.293Z,22.80
2022-09-14T01:33:14.977Z,22.70
2022-09-14T01:35:44.701Z,22.80
2022-09-14T01:38:20.279Z,22.70
2022-09-14T01:40:49.399Z,22.70
2022-09-14T01:43:19.844Z,22.80
2022-09-14T01:45:49.883Z,22.70
2022-09-14T01:48:18.541Z,22.70
2022-09-14T01:50:47.157Z,22.70
2022-09-14T01:53:20.164Z,22.70
2022-09-14T01:55:59.834Z,22.60
2022-09-14T01:58:32.921Z,22.60
2022-09-14T02:01:01.932Z,22.60
2022-09-14T02:03:37.322Z,22.70
2022-09-14T02:06:10.143Z,22.60
2022-09-14T02:08:37.280Z,22.60
2022-09-14T02:11:04.090Z,22.70
2022-09-14T02:16:26.955Z,22.70
2022-09-14T02:18:54.949Z,22.60
2022-09-14T02:21:24.875Z,22.70
2022-09-14T02:23:52.013Z,22.60
2022-09-14T02:26:19.897Z,22.60
2022-09-14T02:28:47.085Z,22.60
2022-09-14T02:31:26.890Z,22.70
2022-09-14T02:34:12.737Z,22.70
2022-09-14T02:36:51.239Z,22.70
2022-09-14T02:39:24.341Z,22.70
2022-09-14T02:41:59.776Z,22.80
2022-09-14T02:44:39.046Z,22.70
2022-09-14T02:47:09.031Z,22.50
2022-09-14T02:50:02.049Z,22.80
2022-09-14T02:52:28.878Z,22.80
2022-09-14T02:54:55.587Z,22.80
2022-09-14T02:57:22.360Z,22.80
2022-09-14T02:59:49.149Z,22.80
2022-09-14T03:02:16.022Z,22.80
2022-09-14T03:04:42.910Z,22.90
2022-09-14T03:07:09.760Z,22.90
2022-09-14T03:09:36.626Z,22.90
2022-09-14T03:12:03.504Z,22.90
2022-09-14T03:14:30.272Z,22.90
2022-09-14T03:16:57.145Z,22.90
2022-09-14T03:19:23.877Z,23.00
2022-09-14T03:21:50.717Z,23.00
2022-09-14T03:24:17.444Z,22.90
2022-09-14T03:26:45.835Z,22.90
2022-09-14T03:29:12.567Z,22.90
2022-09-14T03:31:39.452Z,23.00
2022-09-14T03:34:06.301Z,22.90
2022-09-14T03:36:33.212Z,23.00
2022-09-14T03:39:01.927Z,23.00
2022-09-14T03:41:28.960Z,23.00
2022-09-14T03:43:55.825Z,23.00
2022-09-14T03:46:23.888Z,23.00
2022-09-14T03:48:50.937Z,23.10
2022-09-14T03:51:18.006Z,23.00
2022-09-14T03:53:45.281Z,23.10
2022-09-14T03:56:16.823Z,23.00
2022-09-14T03:58:44.517Z,23.00
2022-09-14T04:01:14.517Z,23.00
2022-09-14T04:03:42.130Z,23.10
2022-09-14T04:06:10.055Z,23.10
2022-09-14T04:08:38.761Z,23.10
2022-09-14T04:11:13.456Z,23.00
2022-09-14T04:13:40.803Z,23.00
2022-09-14T04:16:07.808Z,23.00
2022-09-14T04:18:34.686Z,23.00
2022-09-14T04:21:07.822Z,23.00
2022-09-14T04:23:46.162Z,23.00
2022-09-14T04:26:19.329Z,22.90
2022-09-14T04:28:46.080Z,22.90
2022-09-14T04:31:13.086Z,22.90
2022-09-14T04:33:40.908Z,22.90
2022-09-14T04:36:09.284Z,22.90
2022-09-14T04:38:37.164Z,23.00
2022-09-14T04:41:05.121Z,22.90
2022-09-14T04:43:31.909Z,23.00
2022-09-14T04:46:02.908Z,22.90
2022-09-14T04:48:33.666Z,22.90
2022-09-14T04:51:10.842Z,22.90
2022-09-14T04:53:38.707Z,23.00
2022-09-14T04:56:06.961Z,22.90
2022-09-14T04:58:34.498Z,23.00
2022-09-14T05:01:02.009Z,23.00
2022-09-14T05:03:28.877Z,23.00
2022-09-14T05:06:01.681Z,23.00
2022-09-14T05:08:28.738Z,23.00
2022-09-14T05:10:56.002Z,23.00
2022-09-14T05:13:23.722Z,23.00
2022-09-14T05:15:50.674Z,23.00
2022-09-14T05:18:18.805Z,23.00
2022-09-14T05:20:45.644Z,22.90
2022-09-14T05:23:12.391Z,23.00
2022-09-14T05:25:39.135Z,23.10
2022-09-14T05:28:05.992Z,23.10
2022-09-14T05:30:32.695Z,23.00
2022-09-14T05:32:59.589Z,23.10
2022-09-14T05:35:26.295Z,23.10
2022-09-14T05:37:53.091Z,23.00
2022-09-14T05:40:19.857Z,23.10
2022-09-14T05:42:46.624Z,23.10
2022-09-14T05:45:13.512Z,23.20
2022-09-14T05:47:40.243Z,22.70
2022-09-14T05:50:08.624Z,23.20
2022-09-14T05:52:36.318Z,23.20
2022-09-14T05:55:03.191Z,23.20
2022-09-14T05:57:30.079Z,23.20
2022-09-14T05:59:56.779Z,23.20
2022-09-14T06:02:23.609Z,23.20
2022-09-14T06:04:50.459Z,23.20
2022-09-14T06:07:18.884Z,22.80
2022-09-14T06:09:45.998Z,23.30
2022-09-14T06:12:14.672Z,23.30
2022-09-14T06:14:41.415Z,23.30
2022-09-14T06:17:08.193Z,23.30
2022-09-14T06:19:34.948Z,23.40
2022-09-14T06:22:01.984Z,23.40
2022-09-14T06:24:28.813Z,23.40
2022-09-14T06:26:55.664Z,23.50
2022-09-14T06:29:22.328Z,23.40
2022-09-14T06:31:49.077Z,23.40
2022-09-14T06:34:15.875Z,23.50
2022-09-14T06:36:42.680Z,23.50
2022-09-14T06:39:09.388Z,23.50
2022-09-14T06:41:36.152Z,23.50
2022-09-14T06:44:03.215Z,23.50
2022-09-14T06:46:31.624Z,23.50
2022-09-14T06:49:02.539Z,23.50
2022-09-14T06:51:36.078Z,23.50
2022-09-14T06:54:03.291Z,23.50
2022-09-14T06:56:34.503Z,23.50
2022-09-14T06:59:01.333Z,23.60
2022-09-14T07:01:28.504Z,23.60
2022-09-14T07:03:55.602Z,23.60
2022-09-14T07:06:23.507Z,23.60
2022-09-14T07:08:51.034Z,23.60
2022-09-14T07:11:18.916Z,23.60
2022-09-14T07:13:46.195Z,23.70
2022-09-14T07:16:13.354Z,23.80
2022-09-14T07:18:40.497Z,23.80
2022-09-14T07:21:11.728Z,23.90
2022-09-14T07:23:39.404Z,23.90
2022-09-14T07:26:07.847Z,23.90
2022-09-14T07:28:35.266Z,23.90
2022-09-14T07:31:02.238Z,24.00
2022-09-14T07:33:29.231Z,24.00
2022-09-14T07:36:04.292Z,24.00
2022-09-14T07:38:51.183Z,24.00
2022-09-14T07:41:18.172Z,24.00
2022-09-14T07:43:48.006Z,24.10
2022-09-14T07:46:14.959Z,24.10
2022-09-14T07:48:41.792Z,24.10
2022-09-14T07:51:10.274Z,24.10
2022-09-14T07:53:42.626Z,24.10
2022-09-14T07:56:10.568Z,24.20
2022-09-14T07:58:37.297Z,24.20
2022-09-14T08:01:07.651Z,24.20
2022-09-14T08:03:36.256Z,24.20
2022-09-14T08:06:05.796Z,24.20
2022-09-14T08:08:33.548Z,24.30
2022-09-14T08:11:05.684Z,24.30
2022-09-14T08:13:33.791Z,24.40
2022-09-14T08:16:00.908Z,24.40
2022-09-14T08:18:28.782Z,24.30
2022-09-14T08:20:55.950Z,24.40
2022-09-14T08:23:22.928Z,24.40
2022-09-14T08:25:49.701Z,24.40
2022-09-14T08:28:16.428Z,24.40
2022-09-14T08:30:43.264Z,24.50
2022-09-14T08:33:09.957Z,24.50
2022-09-14T08:35:57.498Z,24.60
2022-09-14T08:38:25.327Z,24.60
2022-09-14T08:40:53.359Z,24.60
2022-09-14T08:43:21.281Z,24.70
2022-09-14T08:45:48.540Z,24.70
2022-09-14T08:48:27.182Z,24.70
2022-09-14T08:50:54.136Z,24.80
2022-09-14T08:53:21.967Z,24.80
2022-09-14T08:55:50.183Z,24.90
2022-09-14T08:58:41.441Z,24.90
2022-09-14T09:01:32.241Z,24.90
2022-09-14T09:04:02.101Z,24.90
2022-09-14T09:06:37.847Z,24.90
2022-09-14T09:09:07.633Z,24.90
2022-09-14T09:11:40.072Z,24.90
2022-09-14T09:14:17.739Z,24.90
2022-09-14T09:16:46.998Z,24.90
2022-09-14T09:19:17.439Z,24.80
2022-09-14T09:21:46.390Z,24.90
2022-09-14T09:24:36.382Z,24.80
2022-09-14T09:27:09.684Z,24.90
2022-09-14T09:29:36.463Z,24.90
2022-09-14T09:32:19.281Z,24.90
2022-09-14T09:35:05.335Z,24.90
2022-09-14T09:38:01.279Z,24.90
2022-09-14T09:40:35.069Z,24.90
2022-09-14T09:43:06.187Z,25.00
2022-09-14T09:45:48.333Z,25.00
2022-09-14T09:48:15.879Z,25.00
2022-09-14T09:50:58.252Z,25.10
2022-09-14T09:53:25.143Z,25.10
2022-09-14T09:55:51.908Z,25.10
2022-09-14T09:58:31.099Z,25.10
2022-09-14T10:01:02.355Z,25.20
2022-09-14T10:03:30.979Z,25.20
2022-09-14T10:06:02.629Z,25.30
2022-09-14T10:08:34.702Z,25.30
2022-09-14T10:11:02.785Z,25.50
2022-09-14T10:13:38.186Z,25.50
2022-09-14T10:16:13.346Z,25.60
2022-09-14T10:18:51.178Z,25.60
2022-09-14T10:21:22.511Z,25.70
2022-09-14T10:24:03.058Z,25.70
2022-09-14T10:26:32.243Z,25.90
2022-09-14T10:29:18.139Z,25.90
2022-09-14T10:31:45.595Z,25.90
2022-09-14T10:34:17.332Z,26.00
2022-09-14T10:36:47.992Z,26.00
2022-09-14T10:39:41.288Z,25.90
2022-09-14T10:42:15.415Z,25.90
2022-09-14T10:44:45.238Z,25.90
2022-09-14T10:47:23.826Z,25.90
2022-09-14T10:49:50.937Z,25.80
2022-09-14T10:52:29.896Z,25.80
2022-09-14T10:54:56.653Z,25.80
2022-09-14T10:57:42.249Z,25.90
2022-09-14T11:00:12.155Z,25.80
2022-09-14T11:02:46.901Z,25.80
2022-09-14T11:05:32.527Z,25.70
2022-09-14T11:08:11.690Z,25.70
2022-09-14T11:10:57.820Z,25.80
2022-09-14T11:13:27.736Z,25.70
2022-09-14T11:15:54.494Z,25.90
2022-09-14T11:18:24.295Z,25.90
2022-09-14T11:20:51.101Z,26.00
2022-09-14T11:23:24.123Z,25.90
2022-09-14T11:25:54.024Z,26.00
2022-09-14T11:28:24.052Z,26.10
2022-09-14T11:30:57.114Z,26.20
2022-09-14T11:33:43.356Z,26.20
2022-09-14T11:36:16.723Z,26.20
2022-09-14T11:38:46.500Z,26.40
2022-09-14T11:41:19.547Z,26.50
2022-09-14T11:43:46.303Z,26.60
2022-09-14T11:46:16.041Z,26.70
2022-09-14T11:49:01.160Z,26.80
2022-09-14T11:51:41.732Z,26.90
2022-09-14T11:54:16.836Z,27.00
2022-09-14T11:56:46.950Z,27.10
2022-09-14T11:59:33.405Z,27.00
2022-09-14T12:02:20.479Z,27.10
2022-09-14T12:05:16.873Z,27.10
2022-09-14T12:07:45.366Z,27.10
2022-09-14T12:10:18.062Z,27.00
2022-09-14T12:12:44.921Z,27.00
2022-09-14T12:15:23.091Z,27.00
2022-09-14T12:17:55.161Z,27.10
2022-09-14T12:20:37.500Z,27.10
2022-09-14T12:23:05.776Z,27.20
2022-09-14T12:25:33.760Z,27.20
2022-09-14T12:28:00.638Z,27.20
2022-09-14T12:30:40.892Z,27.20
2022-09-14T12:33:28.428Z,27.30
2022-09-14T12:35:55.213Z,27.40
2022-09-14T12:38:31.450Z,27.70
2022-09-14T12:40:58.422Z,27.80
2022-09-14T12:43:37.619Z,28.00
2022-09-14T12:46:04.555Z,28.20
2022-09-14T12:48:43.619Z,28.30
2022-09-14T12:51:12.434Z,28.40
2022-09-14T12:53:40.939Z,28.50
2022-09-14T12:56:16.115Z,28.60
2022-09-14T12:58:42.915Z,28.70
2022-09-14T13:01:09.984Z,28.80
2022-09-14T13:03:50.752Z,28.90
2022-09-14T13:06:17.961Z,28.90
2022-09-14T13:08:54.814Z,28.80
2022-09-14T13:11:23.712Z,28.70
2022-09-14T13:13:51.169Z,28.70
2022-09-14T13:16:22.245Z,28.60
2022-09-14T13:18:49.067Z,28.50
2022-09-14T13:21:21.118Z,28.40
2022-09-14T13:23:48.363Z,28.30
2022-09-14T13:26:28.872Z,28.20
2022-09-14T13:28:56.828Z,28.20
2022-09-14T13:31:27.675Z,28.10
2022-09-14T13:33:55.204Z,28.10
2022-09-14T13:36:23.897Z,28.10
2022-09-14T13:38:51.243Z,28.00
2022-09-14T13:41:19.525Z,27.90
2022-09-14T13:43:49.718Z,27.90
2022-09-14T13:46:20.245Z,27.80
2022-09-14T13:48:47.724Z,27.90
2022-09-14T13:51:15.571Z,27.90
2022-09-14T13:53:48.563Z,27.90
2022-09-14T13:56:35.838Z,27.80
2022-09-14T13:59:09.026Z,27.90
2022-09-14T14:01:37.745Z,27.80
2022-09-14T14:04:07.331Z,27.80
2022-09-14T14:06:35.403Z,27.70
2022-09-14T14:09:03.902Z,27.80
2022-09-14T14:11:35.609Z,27.80
2022-09-14T14:14:13.182Z,27.80
2022-09-14T14:16:40.118Z,27.90
2022-09-14T14:19:26.549Z,27.90
2022-09-14T14:22:11.500Z,28.10
2022-09-14T14:24:55.703Z,28.10
2022-09-14T14:27:25.165Z,28.30
2022-09-14T14:29:52.853Z,28.50
2022-09-14T14:32:19.703Z,28.50
2022-09-14T14:34:46.698Z,28.50
2022-09-14T14:37:13.545Z,28.50
2022-09-14T14:39:40.256Z,28.50
2022-09-14T14:42:07.392Z,28.50
2022-09-14T14:44:34.487Z,28.30
2022-09-14T14:47:01.323Z,28.30
2022-09-14T14:49:28.886Z,28.20
2022-09-14T14:51:55.784Z,28.10
2022-09-14T14:54:22.750Z,27.90
2022-09-14T14:56:50.666Z,27.80
2022-09-14T14:59:20.528Z,27.70
2022-09-14T15:01:48.113Z,27.70
2022-09-14T15:04:15.411Z,27.60
2022-09-14T15:06:42.361Z,27.60
2022-09-14T15:09:16.573Z,27.40
2022-09-14T15:11:43.573Z,27.50
2022-09-14T15:14:13.915Z,27.50
2022-09-14T15:16:41.119Z,27.40
2022-09-14T15:19:08.340Z,27.50
2022-09-14T15:21:35.237Z,27.40
2022-09-14T15:24:02.254Z,27.40
2022-09-14T15:26:29.133Z,27.50
2022-09-14T15:28:55.984Z,27.50
2022-09-14T15:31:23.082Z,27.50
2022-09-14T15:33:49.946Z,27.50
2022-09-14T15:36:35.589Z,27.50
2022-09-14T15:39:02.532Z,27.60
2022-09-14T15:41:29.274Z,27.40
2022-09-14T15:43:56.063Z,27.30
2022-09-14T15:46:22.950Z,27.30
2022-09-14T15:48:49.763Z,27.20
2022-09-14T15:51:17.266Z,27.20
2022-09-14T15:53:45.734Z,27.20
2022-09-14T15:56:13.201Z,27.20
2022-09-14T15:58:41.248Z,27.20
2022-09-14T16:01:10.518Z,27.20
2022-09-14T16:03:37.343Z,27.10
2022-09-14T16:06:05.300Z,27.10
2022-09-14T16:08:32.209Z,27.10
2022-09-14T16:10:59.291Z,27.10
2022-09-14T16:13:26.351Z,27.10
2022-09-14T16:16:02.246Z,26.70
2022-09-14T16:18:29.116Z,27.00
2022-09-14T16:20:55.893Z,26.50
2022-09-14T16:23:22.825Z,27.00
2022-09-14T16:25:50.074Z,26.90
2022-09-14T16:28:17.257Z,26.80
2022-09-14T16:30:45.812Z,26.90
2022-09-14T16:33:17.526Z,26.90
2022-09-14T16:35:47.422Z,26.90
2022-09-14T16:38:14.289Z,26.90
2022-09-14T16:40:43.154Z,26.90
2022-09-14T16:43:10.089Z,26.80
2022-09-14T16:45:36.921Z,26.80
2022-09-14T16:48:03.836Z,26.80
2022-09-14T16:50:30.679Z,26.80
2022-09-14T16:52:57.521Z,26.80
2022-09-14T16:55:24.268Z,26.70
2022-09-14T16:57:51.142Z,26.70
2022-09-14T17:00:18.403Z,26.60
2022-09-14T17:02:45.434Z,26.60
2022-09-14T17:05:12.641Z,26.50
2022-09-14T17:07:39.504Z,26.50
2022-09-14T17:10:06.464Z,26.40
2022-09-14T17:12:33.293Z,26.40
2022-09-14T17:15:00.060Z,26.40
2022-09-14T17:17:26.891Z,26.50
2022-09-14T17:19:53.755Z,26.40
2022-09-14T17:22:20.626Z,26.40
2022-09-14T17:24:47.809Z,26.40
2022-09-14T17:27:14.642Z,26.40
2022-09-14T17:29:41.505Z,26.30
2022-09-14T17:32:12.494Z,26.40
2022-09-14T17:34:41.740Z,26.30
2022-09-14T17:37:08.521Z,26.30
2022-09-14T17:39:35.344Z,26.30
2022-09-14T17:42:02.192Z,26.30
2022-09-14T17:44:31.379Z,26.30
2022-09-14T17:46:58.385Z,26.30
2022-09-14T17:49:25.357Z,26.20
2022-09-14T17:51:52.355Z,26.10
2022-09-14T17:54:19.714Z,26.10
2022-09-14T17:56:46.533Z,26.10
2022-09-14T17:59:14.339Z,26.10
2022-09-14T18:01:41.184Z,26.10
2022-09-14T18:04:10.092Z,26.10
2022-09-14T18:06:38.492Z,26.10
2022-09-14T18:09:08.024Z,26.10
2022-09-14T18:11:35.379Z,26.20
2022-09-14T18:14:02.646Z,26.20
2022-09-14T18:16:29.526Z,26.20
2022-09-14T18:18:59.299Z,26.20
2022-09-14T18:21:26.517Z,26.40
2022-09-14T18:23:54.017Z,26.20
2022-09-14T18:26:21.108Z,26.20
2022-09-14T18:28:50.914Z,26.30
2022-09-14T18:31:19.527Z,26.20
2022-09-14T18:33:50.411Z,26.20
2022-09-14T18:36:17.427Z,26.30
2022-09-14T18:38:44.801Z,26.30
2022-09-14T18:41:12.231Z,26.20
2022-09-14T18:43:42.451Z,26.20
2022-09-14T18:46:09.273Z,26.10
2022-09-14T18:48:36.164Z,26.20
2022-09-14T18:51:04.772Z,26.20
2022-09-14T18:53:31.645Z,26.10
2022-09-14T18:56:02.170Z,26.10
2022-09-14T18:58:31.985Z,26.00
2022-09-14T19:00:58.761Z,26.00
2022-09-14T19:03:25.571Z,26.00
2022-09-14T19:05:52.336Z,26.00
2022-09-14T19:08:19.093Z,26.00
2022-09-14T19:10:46.016Z,26.00
2022-09-14T19:13:12.740Z,26.00
2022-09-14T19:15:40.880Z,26.00
2022-09-14T19:18:08.416Z,26.00
2022-09-14T19:21:04.928Z,26.00
2022-09-14T19:23:25.446Z,26.00
2022-09-14T19:25:52.219Z,26.00
2022-09-14T19:28:19.019Z,25.90
2022-09-14T19:30:46.584Z,26.00
2022-09-14T19:33:14.556Z,26.00
2022-09-14T19:35:41.263Z,25.90
2022-09-14T19:38:08.093Z,26.00
2022-09-14T19:40:34.923Z,26.00
2022-09-14T19:43:01.792Z,26.00
2022-09-14T19:45:29.356Z,26.00
2022-09-14T19:47:56.144Z,25.90
2022-09-14T19:50:23.185Z,25.90
2022-09-14T19:52:49.985Z,25.90
2022-09-14T19:55:16.772Z,25.90
2022-09-14T19:57:44.019Z,25.90
2022-09-14T20:00:15.232Z,25.80
2022-09-14T20:02:47.531Z,25.90
2022-09-14T20:05:15.622Z,25.80
2022-09-14T20:07:42.987Z,25.90
2022-09-14T20:10:10.021Z,25.80
2022-09-14T20:12:36.816Z,25.80
2022-09-14T20:15:03.831Z,25.80
2022-09-14T20:17:30.575Z,25.80
2022-09-14T20:19:57.335Z,25.80
2022-09-14T20:22:24.051Z,25.80
2022-09-14T20:24:50.822Z,25.90
2022-09-14T20:27:17.668Z,25.80
2022-09-14T20:29:44.428Z,25.80
2022-09-14T20:32:11.102Z,25.80
2022-09-14T20:34:38.021Z,25.90
2022-09-14T20:37:04.877Z,25.80
2022-09-14T20:39:31.640Z,25.90
2022-09-14T20:41:58.411Z,25.90
2022-09-14T20:44:25.348Z,25.90
2022-09-14T20:46:52.166Z,25.90
2022-09-14T20:49:20.728Z,25.80
2022-09-14T20:51:47.638Z,25.80
2022-09-14T20:54:15.376Z,25.80
2022-09-14T20:56:42.466Z,25.90
2022-09-14T20:59:10.655Z,25.90
2022-09-14T21:01:38.180Z,25.90
2022-09-14T21:04:09.651Z,25.80
2022-09-14T21:06:37.712Z,25.90
2022-09-14T21:09:05.546Z,25.80
2022-09-14T21:11:32.809Z,25.80
2022-09-14T21:13:59.635Z,25.80
2022-09-14T21:16:31.385Z,25.80
2022-09-14T21:18:59.839Z,25.80
2022-09-14T21:21:26.705Z,25.80
2022-09-14T21:23:54.068Z,25.80
2022-09-14T21:26:20.883Z,25.80
2022-09-14T21:28:47.776Z,25.80
2022-09-14T21:31:21.195Z,25.80
2022-09-14T21:33:50.503Z,25.70
2022-09-14T21:36:17.301Z,25.70
2022-09-14T21:38:47.876Z,25.70
2022-09-14T21:41:14.715Z,25.70
2022-09-14T21:43:41.879Z,25.70
2022-09-14T21:46:09.481Z,25.70
2022-09-14T21:48:36.821Z,25.70
2022-09-14T21:51:03.644Z,25.70
2022-09-14T21:53:30.679Z,25.60
2022-09-14T21:55:57.463Z,25.60
2022-09-14T21:58:24.221Z,25.60
2022-09-14T22:00:58.171Z,25.60
2022-09-14T22:03:25.205Z,25.50
2022-09-14T22:05:59.260Z,25.50
2022-09-14T22:08:26.605Z,25.50
2022-09-14T22:10:53.344Z,25.50
2022-09-14T22:13:20.231Z,25.40
2022-09-14T22:15:46.953Z,25.40
2022-09-14T22:18:14.343Z,25.40
2022-09-14T22:20:41.335Z,25.40
2022-09-14T22:23:08.368Z,25.40
2022-09-14T22:25:38.636Z,25.40
2022-09-14T22:28:05.440Z,25.30
2022-09-14T22:30:32.209Z,25.30
2022-09-14T22:32:58.987Z,25.30
2022-09-14T22:35:25.712Z,25.30
2022-09-14T22:37:52.497Z,25.30
2022-09-14T22:40:19.280Z,25.30
2022-09-14T22:42:46.159Z,25.20
2022-09-14T22:45:12.845Z,25.20
2022-09-14T22:47:39.600Z,25.20
2022-09-14T22:50:06.665Z,25.20
2022-09-14T22:52:34.043Z,25.20
2022-09-14T22:55:00.836Z,24.80
2022-09-14T22:57:27.692Z,25.10
2022-09-14T22:59:54.412Z,25.10
2022-09-14T23:02:21.228Z,25.10
2022-09-14T23:04:48.603Z,25.10
2022-09-14T23:07:15.347Z,25.10
2022-09-14T23:09:42.143Z,25.00
2022-09-14T23:12:09.106Z,25.00
2022-09-14T23:14:35.797Z,25.00
2022-09-14T23:17:02.838Z,25.00
2022-09-14T23:19:31.083Z,25.00
2022-09-14T23:21:57.914Z,25.00
2022-09-14T23:24:24.709Z,24.90
2022-09-14T23:26:51.538Z,24.90
2022-09-14T23:29:18.264Z,24.80
2022-09-14T23:31:45.090Z,24.80
2022-09-14T23:34:11.967Z,24.80
2022-09-14T23:36:38.751Z,24.70
2022-09-14T23:39:05.509Z,24.70
2022-09-14T23:41:32.627Z,24.60
2022-09-14T23:43:59.335Z,24.70
2022-09-14T23:46:26.244Z,24.70
2022-09-14T23:48:53.048Z,24.70
2022-09-14T23:51:19.963Z,24.70
2022-09-14T23:53:46.935Z,24.80
2022-09-14T23:56:14.067Z,24.70
2022-09-14T23:58:43.913Z,24.70
